createdAt,value
2023-08-08T00:00:04.311Z,0.60
2023-08-08T00:03:10.162Z,0.70
2023-08-08T00:06:14.194Z,0.43
2023-08-08T00:09:17.904Z,0.45
2023-08-08T00:12:21.935Z,0.60
2023-08-08T00:15:27.347Z,0.40
2023-08-08T00:18:31.221Z,0.55
2023-08-08T00:21:35.075Z,0.80
2023-08-08T00:24:38.929Z,0.75
2023-08-08T00:27:45.106Z,0.57
2023-08-08T00:30:50.519Z,0.57
2023-08-08T00:33:54.233Z,0.60
2023-08-08T00:36:58.105Z,0.70
2023-08-08T00:40:02.239Z,0.40
2023-08-08T00:43:06.668Z,0.60
2023-08-08T00:46:12.073Z,0.60
2023-08-08T00:49:16.559Z,0.65
2023-08-08T00:52:20.089Z,0.47
2023-08-08T00:55:24.916Z,0.85
2023-08-08T00:58:28.813Z,0.80
2023-08-08T01:01:35.202Z,0.73
2023-08-08T01:04:41.122Z,0.52
2023-08-08T01:07:54.620Z,0.83
2023-08-08T01:10:58.697Z,0.60
2023-08-08T01:14:04.950Z,0.90
2023-08-08T01:17:10.158Z,1.00
2023-08-08T01:20:18.090Z,0.60
2023-08-08T01:23:30.879Z,0.60
2023-08-08T01:26:37.150Z,0.88
2023-08-08T01:29:41.683Z,0.57
2023-08-08T01:32:45.603Z,0.80
2023-08-08T01:35:55.965Z,0.90
2023-08-08T01:39:06.416Z,0.63
2023-08-08T01:42:13.118Z,0.90
2023-08-08T01:45:18.110Z,1.00
2023-08-08T01:48:21.758Z,0.60
2023-08-08T01:51:27.440Z,0.98
2023-08-08T01:54:31.362Z,0.85
2023-08-08T01:57:36.718Z,0.70
2023-08-08T02:00:42.150Z,1.08
2023-08-08T02:03:46.367Z,1.15
2023-08-08T02:06:50.145Z,0.70
2023-08-08T02:09:54.025Z,0.70
2023-08-08T02:12:59.233Z,1.13
2023-08-08T02:16:03.495Z,0.80
2023-08-08T02:19:07.917Z,0.80
2023-08-08T02:22:12.085Z,1.20
2023-08-08T02:25:16.228Z,0.98
2023-08-08T02:28:21.598Z,0.52
2023-08-08T02:31:25.943Z,0.70
2023-08-08T02:34:30.266Z,0.80
2023-08-08T02:37:33.930Z,0.63
2023-08-08T02:40:39.864Z,0.80
2023-08-08T02:43:46.578Z,1.00
2023-08-08T02:46:50.945Z,1.00
2023-08-08T02:49:54.643Z,0.90
2023-08-08T02:52:58.841Z,0.65
2023-08-08T02:56:07.367Z,0.85
2023-08-08T02:59:18.010Z,0.60
2023-08-08T03:02:21.808Z,0.80
2023-08-08T03:05:26.873Z,0.82
2023-08-08T03:08:31.206Z,0.88
2023-08-08T03:11:38.475Z,0.70
2023-08-08T03:14:45.537Z,0.80
2023-08-08T03:17:50.486Z,0.70
2023-08-08T03:20:55.123Z,1.10
2023-08-08T03:24:00.633Z,0.82
2023-08-08T03:27:04.413Z,1.00
2023-08-08T03:30:11.751Z,0.82
2023-08-08T03:33:18.818Z,0.90
2023-08-08T03:36:23.220Z,1.23
2023-08-08T03:39:27.853Z,0.90
2023-08-08T03:42:31.871Z,1.27
2023-08-08T03:45:37.177Z,0.80
2023-08-08T03:48:41.678Z,1.02
2023-08-08T03:51:45.406Z,1.20
2023-08-08T03:54:49.481Z,1.35
2023-08-08T03:57:53.124Z,1.40
2023-08-08T04:00:58.671Z,1.05
2023-08-08T04:04:02.273Z,1.10
2023-08-08T04:07:06.346Z,1.38
2023-08-08T04:10:10.957Z,1.10
2023-08-08T04:13:14.987Z,1.60
2023-08-08T04:16:20.612Z,1.63
2023-08-08T04:19:24.687Z,1.42
2023-08-08T04:22:28.266Z,1.40
2023-08-08T04:25:32.689Z,1.33
2023-08-08T04:28:36.280Z,1.60
2023-08-08T04:31:41.579Z,1.30
2023-08-08T04:34:45.360Z,1.40
2023-08-08T04:37:49.341Z,1.80
2023-08-08T04:40:52.996Z,1.92
2023-08-08T04:43:56.918Z,1.30
2023-08-08T04:47:02.040Z,1.30
2023-08-08T04:50:07.317Z,1.48
2023-08-08T04:53:10.821Z,1.33
2023-08-08T04:56:14.706Z,1.40
2023-08-08T04:59:18.269Z,1.70
2023-08-08T05:02:23.517Z,1.58
2023-08-08T05:05:27.133Z,1.42
2023-08-08T05:08:31.028Z,1.52
2023-08-08T05:11:34.544Z,1.63
2023-08-08T05:14:38.558Z,1.23
2023-08-08T05:17:43.591Z,1.35
2023-08-08T05:20:47.589Z,1.40
2023-08-08T05:23:51.297Z,1.67
2023-08-08T05:26:55.476Z,1.50
2023-08-08T05:29:59.113Z,1.40
2023-08-08T05:33:04.683Z,1.10
2023-08-08T05:36:08.638Z,1.10
2023-08-08T05:39:12.532Z,1.50
2023-08-08T05:42:17.013Z,1.13
2023-08-08T05:45:21.113Z,1.20
2023-08-08T05:48:26.330Z,1.30
2023-08-08T05:51:30.447Z,1.33
2023-08-08T05:54:34.132Z,1.10
2023-08-08T05:57:38.842Z,1.20
2023-08-08T06:00:43.856Z,1.10
2023-08-08T06:03:49.258Z,1.25
2023-08-08T06:06:52.986Z,0.75
2023-08-08T06:09:56.922Z,1.00
2023-08-08T06:13:00.601Z,1.00
2023-08-08T06:16:08.144Z,1.00
2023-08-08T06:19:15.295Z,0.80
2023-08-08T06:22:20.877Z,0.90
2023-08-08T06:25:25.698Z,0.90
2023-08-08T06:28:31.360Z,0.90
2023-08-08T06:31:35.084Z,1.00
2023-08-08T06:34:40.499Z,1.20
2023-08-08T06:37:44.877Z,0.85
2023-08-08T06:40:48.863Z,0.80
2023-08-08T06:43:52.566Z,0.80
2023-08-08T06:46:56.966Z,0.77
2023-08-08T06:50:02.479Z,0.73
2023-08-08T06:53:07.220Z,0.70
2023-08-08T06:56:10.830Z,0.80
2023-08-08T06:59:14.709Z,1.08
2023-08-08T07:02:18.873Z,0.60
2023-08-08T07:05:24.765Z,0.80
2023-08-08T07:08:28.559Z,0.82
2023-08-08T07:11:32.675Z,0.80
2023-08-08T07:14:36.399Z,0.90
2023-08-08T07:17:40.692Z,1.27
2023-08-08T07:20:46.036Z,0.50
2023-08-08T07:23:50.382Z,0.55
2023-08-08T07:26:54.815Z,0.77
2023-08-08T07:29:58.878Z,0.50
2023-08-08T07:33:02.697Z,0.95
2023-08-08T07:36:08.395Z,1.60
2023-08-08T07:39:12.587Z,0.93
2023-08-08T07:42:16.713Z,0.80
2023-08-08T07:45:20.831Z,0.98
2023-08-08T07:48:24.693Z,1.03
2023-08-08T07:51:29.717Z,0.80
2023-08-08T07:54:33.922Z,0.60
2023-08-08T07:57:37.555Z,0.70
2023-08-08T08:00:42.232Z,0.80
2023-08-08T08:03:46.314Z,0.70
2023-08-08T08:06:51.610Z,0.80
2023-08-08T08:09:55.307Z,1.20
2023-08-08T08:12:59.961Z,0.63
2023-08-08T08:16:03.586Z,0.55
2023-08-08T08:19:07.718Z,0.67
2023-08-08T08:22:12.859Z,0.90
2023-08-08T08:25:17.028Z,0.90
2023-08-08T08:28:21.150Z,0.80
2023-08-08T08:31:24.980Z,0.90
2023-08-08T08:34:28.738Z,0.80
2023-08-08T08:37:34.317Z,0.77
2023-08-08T08:40:41.682Z,0.80
2023-08-08T08:43:45.606Z,1.10
2023-08-08T08:46:50.650Z,0.82
2023-08-08T08:49:55.188Z,0.70
2023-08-08T08:53:02.515Z,0.90
2023-08-08T08:56:06.883Z,0.80
2023-08-08T08:59:10.609Z,1.00
2023-08-08T09:02:16.622Z,0.80
2023-08-08T09:05:23.902Z,0.85
2023-08-08T09:08:29.515Z,0.85
2023-08-08T09:11:34.419Z,0.70
2023-08-08T09:14:43.451Z,1.48
2023-08-08T09:17:49.724Z,2.97
2023-08-08T09:20:54.158Z,1.10
2023-08-08T09:23:59.392Z,1.63
2023-08-08T09:27:03.457Z,0.90
2023-08-08T09:30:10.056Z,1.00
2023-08-08T09:33:14.213Z,0.77
2023-08-08T09:36:17.993Z,1.00
2023-08-08T09:39:23.716Z,0.90
2023-08-08T09:42:30.667Z,0.80
2023-08-08T09:45:43.104Z,0.70
2023-08-08T09:48:47.702Z,0.60
2023-08-08T09:51:53.052Z,0.82
2023-08-08T09:54:58.483Z,0.73
2023-08-08T09:58:04.893Z,0.70
2023-08-08T10:01:10.236Z,0.70
2023-08-08T10:04:14.900Z,1.00
2023-08-08T10:07:18.746Z,1.02
2023-08-08T10:10:24.467Z,0.98
2023-08-08T10:13:29.385Z,0.60
2023-08-08T10:16:38.445Z,0.50
2023-08-08T10:19:42.316Z,0.50
2023-08-08T10:22:48.514Z,0.38
2023-08-08T10:25:55.044Z,0.50
2023-08-08T10:29:01.012Z,0.60
2023-08-08T10:32:08.232Z,0.68
2023-08-08T10:35:13.981Z,0.65
2023-08-08T10:38:17.650Z,0.43
2023-08-08T10:41:24.496Z,0.60
2023-08-08T10:44:28.469Z,0.60
2023-08-08T10:47:36.583Z,0.65
2023-08-08T10:50:43.189Z,0.50
2023-08-08T10:53:48.497Z,0.52
2023-08-08T10:56:55.780Z,0.50
2023-08-08T11:00:19.496Z,0.70
2023-08-08T11:03:25.236Z,0.40
2023-08-08T11:06:29.766Z,0.50
2023-08-08T11:09:33.612Z,0.60
2023-08-08T11:12:39.169Z,0.40
2023-08-08T11:15:44.301Z,0.50
2023-08-08T11:18:48.264Z,0.40
2023-08-08T11:21:52.336Z,0.43
2023-08-08T11:24:58.639Z,0.57
2023-08-08T11:28:03.817Z,0.50
2023-08-08T11:31:09.389Z,0.60
2023-08-08T11:34:14.018Z,0.40
2023-08-08T11:37:18.106Z,0.28
2023-08-08T11:40:23.235Z,0.40
2023-08-08T11:43:28.773Z,0.50
2023-08-08T11:46:32.767Z,0.50
2023-08-08T11:49:43.238Z,0.70
2023-08-08T11:52:48.964Z,0.40
2023-08-08T11:55:53.373Z,0.40
2023-08-08T11:58:58.326Z,0.55
2023-08-08T12:02:02.841Z,0.47
2023-08-08T12:05:08.150Z,0.70
2023-08-08T12:08:12.109Z,0.40
2023-08-08T12:11:16.797Z,0.50
2023-08-08T12:14:22.418Z,0.40
2023-08-08T12:17:26.059Z,0.43
2023-08-08T12:20:32.199Z,0.70
2023-08-08T12:23:36.628Z,0.40
2023-08-08T12:26:40.432Z,0.50
2023-08-08T12:29:45.685Z,0.60
2023-08-08T12:32:49.876Z,0.60
2023-08-08T12:35:54.222Z,0.60
2023-08-08T12:38:58.045Z,0.40
2023-08-08T12:42:01.821Z,0.47
2023-08-08T12:45:08.882Z,0.52
2023-08-08T12:48:12.695Z,0.52
2023-08-08T12:51:18.071Z,0.50
2023-08-08T12:54:21.662Z,0.43
2023-08-08T12:57:26.223Z,0.50
2023-08-08T13:00:31.194Z,0.60
2023-08-08T13:03:36.258Z,0.50
2023-08-08T13:06:40.113Z,0.60
2023-08-08T13:09:44.175Z,0.50
2023-08-08T13:12:47.827Z,0.60
2023-08-08T13:15:53.160Z,0.55
2023-08-08T13:18:57.007Z,0.57
2023-08-08T13:22:01.047Z,0.50
2023-08-08T13:25:06.602Z,0.40
2023-08-08T13:28:11.072Z,0.52
2023-08-08T13:31:16.980Z,0.40
2023-08-08T13:34:20.806Z,0.80
2023-08-08T13:37:24.636Z,0.60
2023-08-08T13:40:28.774Z,0.75
2023-08-08T13:43:33.137Z,0.70
2023-08-08T13:46:38.627Z,0.60
2023-08-08T13:49:43.091Z,0.67
2023-08-08T13:52:46.923Z,0.68
2023-08-08T13:55:50.510Z,0.60
2023-08-08T13:58:54.566Z,0.68
2023-08-08T14:02:00.002Z,0.60
2023-08-08T14:05:06.397Z,0.60
2023-08-08T14:08:11.074Z,0.70
2023-08-08T14:11:15.089Z,0.60
2023-08-08T14:14:18.672Z,0.60
2023-08-08T14:17:24.403Z,0.60
2023-08-08T14:20:29.033Z,0.60
2023-08-08T14:23:33.211Z,0.70
2023-08-08T14:26:36.798Z,0.70
2023-08-08T14:29:40.851Z,0.60
2023-08-08T14:32:45.939Z,0.57
2023-08-08T14:35:49.954Z,0.70
2023-08-08T14:38:53.420Z,0.73
2023-08-08T14:41:57.720Z,0.50
2023-08-08T14:45:01.419Z,0.50
2023-08-08T14:48:07.812Z,0.50
2023-08-08T14:51:13.388Z,0.50
2023-08-08T14:54:17.304Z,0.70
2023-08-08T14:57:21.075Z,0.70
2023-08-08T15:00:24.976Z,0.70
2023-08-08T15:03:30.954Z,0.60
2023-08-08T15:06:35.108Z,0.63
2023-08-08T15:09:39.618Z,0.60
2023-08-08T15:12:43.673Z,0.70
2023-08-08T15:15:47.416Z,0.75
2023-08-08T15:18:52.731Z,0.70
2023-08-08T15:21:57.101Z,0.50
2023-08-08T15:25:00.963Z,0.80
2023-08-08T15:28:05.619Z,0.80
2023-08-08T15:31:09.642Z,0.70
2023-08-08T15:34:14.632Z,0.50
2023-08-08T15:37:19.160Z,0.70
2023-08-08T15:40:23.197Z,0.60
2023-08-08T15:43:31.414Z,0.60
2023-08-08T15:46:35.719Z,1.45
2023-08-08T15:49:41.171Z,0.80
2023-08-08T15:52:44.870Z,0.50
2023-08-08T15:55:49.809Z,0.80
2023-08-08T15:58:53.574Z,0.85
2023-08-08T16:01:57.392Z,0.70
2023-08-08T16:05:02.509Z,0.90
2023-08-08T16:08:08.096Z,1.00
2023-08-08T16:11:11.971Z,0.93
2023-08-08T16:14:16.318Z,0.95
2023-08-08T16:17:21.737Z,0.70
2023-08-08T16:20:27.136Z,0.75
2023-08-08T16:23:30.840Z,0.57
2023-08-08T16:26:35.036Z,0.60
2023-08-08T16:29:38.615Z,1.02
2023-08-08T16:32:42.662Z,0.70
2023-08-08T16:35:47.726Z,0.68
2023-08-08T16:38:53.589Z,0.70
2023-08-08T16:42:01.118Z,0.90
2023-08-08T16:45:06.381Z,0.80
2023-08-08T16:48:09.957Z,0.88
2023-08-08T16:51:15.573Z,0.98
2023-08-08T16:54:19.197Z,0.70
2023-08-08T16:57:23.225Z,0.80
2023-08-08T17:00:28.330Z,0.90
2023-08-08T17:03:32.308Z,0.70
2023-08-08T17:06:37.400Z,0.75
2023-08-08T17:09:41.358Z,1.50
2023-08-08T17:12:45.247Z,1.15
2023-08-08T17:15:49.072Z,0.88
2023-08-08T17:18:53.715Z,0.90
2023-08-08T17:21:59.607Z,0.90
2023-08-08T17:25:03.576Z,0.93
2023-08-08T17:28:07.775Z,1.02
2023-08-08T17:31:11.481Z,0.90
2023-08-08T17:34:15.495Z,1.20
2023-08-08T17:37:20.408Z,1.05
2023-08-08T17:40:24.236Z,1.00
2023-08-08T17:43:28.018Z,0.80
2023-08-08T17:46:32.244Z,1.00
2023-08-08T17:49:35.905Z,0.70
2023-08-08T17:52:41.371Z,1.00
2023-08-08T17:55:45.011Z,1.00
2023-08-08T17:58:49.884Z,0.93
2023-08-08T18:01:53.591Z,1.33
2023-08-08T18:04:57.626Z,1.00
2023-08-08T18:08:02.587Z,1.10
2023-08-08T18:11:06.531Z,1.50
2023-08-08T18:14:11.273Z,1.42
2023-08-08T18:17:15.347Z,1.80
2023-08-08T18:20:18.899Z,2.20
2023-08-08T18:23:24.289Z,2.17
2023-08-08T18:26:27.965Z,1.80
2023-08-08T18:29:31.956Z,1.40
2023-08-08T18:32:35.839Z,1.40
2023-08-08T18:35:39.859Z,1.42
2023-08-08T18:38:44.987Z,1.30
2023-08-08T18:41:49.068Z,1.40
2023-08-08T18:44:52.926Z,1.40
2023-08-08T18:47:56.936Z,1.42
2023-08-08T18:51:01.109Z,1.60
2023-08-08T18:54:09.480Z,1.27
2023-08-08T18:57:13.538Z,1.75
2023-08-08T19:00:17.588Z,2.10
2023-08-08T19:03:21.256Z,1.70
2023-08-08T19:06:25.049Z,1.92
2023-08-08T19:09:30.025Z,1.88
2023-08-08T19:12:33.902Z,1.75
2023-08-08T19:15:38.005Z,2.13
2023-08-08T19:18:41.878Z,1.80
2023-08-08T19:21:45.498Z,1.63
2023-08-08T19:24:50.991Z,1.50
2023-08-08T19:27:54.628Z,1.42
2023-08-08T19:30:58.635Z,1.47
2023-08-08T19:34:06.800Z,1.48
2023-08-08T19:37:11.662Z,1.30
2023-08-08T19:40:16.569Z,1.20
2023-08-08T19:43:21.097Z,1.10
2023-08-08T19:46:24.998Z,1.10
2023-08-08T19:49:28.985Z,1.10
2023-08-08T19:52:32.636Z,0.80
2023-08-08T19:55:38.292Z,0.77
2023-08-08T19:58:42.604Z,0.82
2023-08-08T20:01:46.542Z,1.00
2023-08-08T20:04:50.258Z,0.93
2023-08-08T20:07:56.206Z,1.15
2023-08-08T20:11:01.768Z,1.27
2023-08-08T20:14:05.948Z,1.02
2023-08-08T20:17:09.675Z,1.48
2023-08-08T20:20:13.664Z,1.55
2023-08-08T20:23:17.138Z,1.70
2023-08-08T20:26:22.511Z,1.42
2023-08-08T20:29:26.316Z,1.42
2023-08-08T20:32:32.034Z,1.10
2023-08-08T20:35:35.537Z,1.08
2023-08-08T20:38:39.318Z,1.35
2023-08-08T20:41:44.305Z,1.30
2023-08-08T20:44:48.202Z,1.35
2023-08-08T20:47:51.753Z,1.20
2023-08-08T20:50:55.668Z,1.05
2023-08-08T20:53:59.217Z,1.27
2023-08-08T20:57:04.995Z,1.05
2023-08-08T21:00:11.070Z,1.20
2023-08-08T21:03:14.921Z,1.30
2023-08-08T21:06:18.559Z,0.90
2023-08-08T21:09:22.417Z,1.02
2023-08-08T21:12:27.419Z,0.98
2023-08-08T21:15:31.494Z,1.33
2023-08-08T21:18:35.217Z,1.30
2023-08-08T21:21:39.106Z,1.30
2023-08-08T21:24:42.708Z,1.40
2023-08-08T21:27:47.948Z,1.45
2023-08-08T21:30:51.509Z,4.70
2023-08-08T21:33:55.470Z,1.77
2023-08-08T21:36:59.073Z,1.67
2023-08-08T21:40:03.098Z,1.30
2023-08-08T21:43:08.432Z,1.50
2023-08-08T21:46:12.576Z,1.60
2023-08-08T21:49:16.343Z,1.55
2023-08-08T21:52:20.129Z,1.50
2023-08-08T21:55:24.009Z,1.50
2023-08-08T21:58:29.288Z,1.92
2023-08-08T22:01:32.952Z,1.85
2023-08-08T22:04:38.050Z,1.73
2023-08-08T22:07:42.652Z,2.15
2023-08-08T22:10:46.743Z,1.88
2023-08-08T22:13:51.779Z,2.13
2023-08-08T22:16:55.917Z,1.73
2023-08-08T22:19:59.525Z,2.00
2023-08-08T22:23:09.954Z,2.22
2023-08-08T22:26:21.695Z,2.30
2023-08-08T22:29:27.831Z,2.17
2023-08-08T22:32:31.542Z,2.13
2023-08-08T22:35:35.724Z,2.20
2023-08-08T22:38:39.584Z,1.90
2023-08-08T22:41:44.712Z,1.67
2023-08-08T22:44:50.818Z,2.08
2023-08-08T22:47:54.653Z,1.95
2023-08-08T22:50:58.293Z,1.80
2023-08-08T22:54:02.519Z,2.10
2023-08-08T22:57:06.122Z,2.00
2023-08-08T23:00:13.627Z,1.90
2023-08-08T23:03:17.648Z,1.85
2023-08-08T23:06:21.550Z,2.00
2023-08-08T23:09:25.451Z,1.75
2023-08-08T23:12:29.285Z,2.15
2023-08-08T23:15:34.185Z,1.70
2023-08-08T23:18:38.732Z,1.73
2023-08-08T23:21:42.399Z,1.98
2023-08-08T23:24:46.507Z,2.00
2023-08-08T23:27:50.220Z,2.40
2023-08-08T23:30:55.442Z,2.53
2023-08-08T23:33:59.478Z,2.83
2023-08-08T23:37:03.954Z,2.73
2023-08-08T23:40:10.268Z,2.47
2023-08-08T23:43:14.162Z,2.25
2023-08-08T23:46:19.182Z,2.15
2023-08-08T23:49:23.084Z,1.85
2023-08-08T23:52:26.690Z,2.17
2023-08-08T23:55:31.249Z,2.20
2023-08-08T23:58:35.717Z,2.23
